createdAt,value
2019-05-02T00:00:31.345Z,13.80
2019-05-02T00:01:44.624Z,13.70
2019-05-02T00:04:22.189Z,13.80
2019-05-02T00:05:32.002Z,13.80
2019-05-02T00:06:30.317Z,13.70
2019-05-02T00:07:34.509Z,13.70
2019-05-02T00:08:41.806Z,13.70
2019-05-02T00:09:48.405Z,13.70
2019-05-02T00:10:52.559Z,13.70
2019-05-02T00:11:58.847Z,13.70
2019-05-02T00:13:03.254Z,13.70
2019-05-02T00:14:09.052Z,13.70
2019-05-02T00:15:16.029Z,13.70
2019-05-02T00:16:20.270Z,13.70
2019-05-02T00:17:25.597Z,13.70
2019-05-02T00:18:36.692Z,13.70
2019-05-02T00:19:38.851Z,13.60
2019-05-02T00:20:42.918Z,13.70
2019-05-02T00:21:47.011Z,13.60
2019-05-02T00:22:52.304Z,13.70
2019-05-02T00:23:59.248Z,13.60
2019-05-02T00:25:04.209Z,13.70
2019-05-02T00:26:08.334Z,13.60
2019-05-02T00:27:14.130Z,13.70
2019-05-02T00:28:18.273Z,13.70
2019-05-02T00:29:23.720Z,13.70
2019-05-02T00:30:30.062Z,13.70
2019-05-02T00:31:33.991Z,13.70
2019-05-02T00:32:39.320Z,13.70
2019-05-02T00:33:43.411Z,13.70
2019-05-02T00:34:47.626Z,13.70
2019-05-02T00:35:51.854Z,13.70
2019-05-02T00:36:55.933Z,13.70
2019-05-02T00:38:02.373Z,13.70
2019-05-02T00:39:13.671Z,13.70
2019-05-02T00:40:14.998Z,13.70
2019-05-02T00:41:19.056Z,13.60
2019-05-02T00:42:24.118Z,13.60
2019-05-02T00:43:34.516Z,13.60
2019-05-02T00:44:37.113Z,13.60
2019-05-02T00:45:41.274Z,13.60
2019-05-02T00:46:45.351Z,13.60
2019-05-02T00:48:08.183Z,13.60
2019-05-02T00:49:12.341Z,13.60
2019-05-02T00:50:18.984Z,13.60
2019-05-02T00:51:26.720Z,13.60
2019-05-02T00:52:32.910Z,13.60
2019-05-02T00:53:38.232Z,13.60
2019-05-02T00:54:42.991Z,13.50
2019-05-02T00:55:47.091Z,13.60
2019-05-02T00:56:52.595Z,13.50
2019-05-02T00:57:57.754Z,13.50
2019-05-02T00:59:06.837Z,13.50
2019-05-02T01:00:13.346Z,13.50
2019-05-02T01:01:29.366Z,13.50
2019-05-02T01:02:48.531Z,13.50
2019-05-02T01:03:54.882Z,13.50
2019-05-02T01:05:02.876Z,13.50
2019-05-02T01:06:04.968Z,13.50
2019-05-02T01:07:09.120Z,13.50
2019-05-02T01:08:13.181Z,13.50
2019-05-02T01:09:18.970Z,13.50
2019-05-02T01:10:23.136Z,13.50
2019-05-02T01:11:28.261Z,13.50
2019-05-02T01:12:32.941Z,13.50
2019-05-02T01:13:37.087Z,13.50
2019-05-02T01:14:43.317Z,13.50
2019-05-02T01:15:47.395Z,13.50
2019-05-02T01:16:56.143Z,13.50
2019-05-02T01:18:01.183Z,13.50
2019-05-02T01:19:06.297Z,13.50
2019-05-02T01:20:10.719Z,13.50
2019-05-02T01:21:14.817Z,13.50
2019-05-02T01:22:19.047Z,13.50
2019-05-02T01:23:27.582Z,13.50
2019-05-02T01:24:29.034Z,13.50
2019-05-02T01:25:33.210Z,13.50
2019-05-02T01:26:39.175Z,13.50
2019-05-02T01:27:47.325Z,13.50
2019-05-02T01:28:56.215Z,13.50
2019-05-02T01:30:06.022Z,13.50
2019-05-02T01:31:18.288Z,13.50
2019-05-02T01:32:30.015Z,13.50
2019-05-02T01:33:51.813Z,13.50
2019-05-02T01:35:06.442Z,13.50
2019-05-02T01:36:18.189Z,13.50
2019-05-02T01:37:30.184Z,13.50
2019-05-02T01:38:48.221Z,13.50
2019-05-02T01:39:52.325Z,13.60
2019-05-02T01:40:56.416Z,13.50
2019-05-02T01:42:04.198Z,13.50
2019-05-02T01:43:24.081Z,13.60
2019-05-02T01:44:26.059Z,13.60
2019-05-02T01:45:30.189Z,13.60
2019-05-02T01:46:35.665Z,13.60
2019-05-02T01:47:39.745Z,13.60
2019-05-02T01:48:45.623Z,13.60
2019-05-02T01:49:52.089Z,13.60
2019-05-02T01:50:56.005Z,13.60
2019-05-02T01:52:01.898Z,13.60
2019-05-02T01:53:05.992Z,13.60
2019-05-02T01:54:11.440Z,13.60
2019-05-02T01:55:17.040Z,13.60
2019-05-02T01:56:21.332Z,13.60
2019-05-02T01:57:25.416Z,13.60
2019-05-02T01:58:29.574Z,13.60
2019-05-02T01:59:35.037Z,13.60
2019-05-02T02:00:40.928Z,13.70
2019-05-02T02:01:46.729Z,13.60
2019-05-02T02:02:50.819Z,13.60
2019-05-02T02:03:56.484Z,13.60
2019-05-02T02:05:00.626Z,13.60
2019-05-02T02:06:08.241Z,13.60
2019-05-02T02:07:14.975Z,13.60
2019-05-02T02:08:17.885Z,13.60
2019-05-02T02:09:21.965Z,13.60
2019-05-02T02:10:26.081Z,13.60
2019-05-02T02:11:33.808Z,13.60
2019-05-02T02:12:36.071Z,13.60
2019-05-02T02:13:41.909Z,13.60
2019-05-02T02:14:48.059Z,13.60
2019-05-02T02:15:53.216Z,13.60
2019-05-02T02:16:57.296Z,13.60
2019-05-02T02:18:01.511Z,13.60
2019-05-02T02:19:15.994Z,13.60
2019-05-02T02:20:37.444Z,13.60
2019-05-02T02:21:43.245Z,13.60
2019-05-02T02:22:51.917Z,13.60
2019-05-02T02:23:57.628Z,13.60
2019-05-02T02:25:09.217Z,13.60
2019-05-02T02:26:16.508Z,13.60
2019-05-02T02:27:24.614Z,13.60
2019-05-02T02:28:26.276Z,13.60
2019-05-02T02:29:30.360Z,13.60
2019-05-02T02:30:35.653Z,13.70
2019-05-02T02:31:46.854Z,13.70
2019-05-02T02:32:46.287Z,13.70
2019-05-02T02:33:50.480Z,13.70
2019-05-02T02:34:56.162Z,13.70
2019-05-02T02:36:00.238Z,13.70
2019-05-02T02:37:12.245Z,13.70
2019-05-02T02:38:10.134Z,13.60
2019-05-02T02:39:17.072Z,13.70
2019-05-02T02:40:21.410Z,13.70
2019-05-02T02:41:25.575Z,13.70
2019-05-02T02:42:31.650Z,13.70
2019-05-02T02:43:35.484Z,13.60
2019-05-02T02:44:41.969Z,13.70
2019-05-02T02:46:01.688Z,13.70
2019-05-02T02:47:11.951Z,13.70
2019-05-02T02:48:13.360Z,13.70
2019-05-02T02:49:21.691Z,13.60
2019-05-02T02:50:23.171Z,13.60
2019-05-02T02:51:28.608Z,13.60
2019-05-02T02:52:37.890Z,13.60
2019-05-02T02:53:40.116Z,13.60
2019-05-02T02:54:44.974Z,13.60
2019-05-02T02:55:49.243Z,13.60
2019-05-02T02:56:53.925Z,13.60
2019-05-02T02:57:58.604Z,13.60
2019-05-02T02:59:03.779Z,13.60
2019-05-02T03:00:11.043Z,13.60
2019-05-02T03:01:14.006Z,13.60
2019-05-02T03:02:19.493Z,13.60
2019-05-02T03:03:27.763Z,13.60
2019-05-02T03:04:29.354Z,13.60
2019-05-02T03:05:34.584Z,13.60
2019-05-02T03:06:44.595Z,13.60
2019-05-02T03:07:44.590Z,13.60
2019-05-02T03:08:49.321Z,13.60
2019-05-02T03:09:59.543Z,13.50
2019-05-02T03:11:01.241Z,13.50
2019-05-02T03:12:18.878Z,13.50
2019-05-02T03:13:25.893Z,13.50
2019-05-02T03:14:31.703Z,13.50
2019-05-02T03:15:37.486Z,13.50
2019-05-02T03:16:46.901Z,13.50
2019-05-02T03:17:49.721Z,13.40
2019-05-02T03:18:53.924Z,13.40
2019-05-02T03:20:01.512Z,13.40
2019-05-02T03:21:03.778Z,13.40
2019-05-02T03:22:07.912Z,13.40
2019-05-02T03:23:15.300Z,13.40
2019-05-02T03:24:18.185Z,13.30
2019-05-02T03:25:25.097Z,13.30
2019-05-02T03:26:30.264Z,13.30
2019-05-02T03:27:37.178Z,13.30
2019-05-02T03:28:40.751Z,13.30
2019-05-02T03:29:44.888Z,13.30
2019-05-02T03:30:50.574Z,13.30
2019-05-02T03:32:12.296Z,13.30
2019-05-02T03:33:09.579Z,13.30
2019-05-02T03:34:06.368Z,13.30
2019-05-02T03:35:17.608Z,13.20
2019-05-02T03:36:28.712Z,13.20
2019-05-02T03:37:22.545Z,13.20
2019-05-02T03:38:32.397Z,13.20
2019-05-02T03:39:32.422Z,13.20
2019-05-02T03:40:39.170Z,13.20
2019-05-02T03:41:43.160Z,13.10
2019-05-02T03:42:47.809Z,13.10
2019-05-02T03:44:09.089Z,13.10
2019-05-02T03:45:04.078Z,13.10
2019-05-02T03:46:03.838Z,13.10
2019-05-02T03:47:08.164Z,13.10
2019-05-02T03:48:18.481Z,13.00
2019-05-02T03:49:19.734Z,13.00
2019-05-02T03:50:32.437Z,13.00
2019-05-02T03:51:32.196Z,13.00
2019-05-02T03:52:42.457Z,13.00
2019-05-02T03:53:42.333Z,13.00
2019-05-02T03:54:50.142Z,13.00
2019-05-02T03:55:52.775Z,13.00
2019-05-02T03:56:56.865Z,13.00
2019-05-02T03:58:13.483Z,13.00
2019-05-02T03:59:06.858Z,12.90
2019-05-02T04:00:13.895Z,12.90
2019-05-02T04:01:16.856Z,12.90
2019-05-02T04:02:21.850Z,12.90
2019-05-02T04:03:26.141Z,12.90
2019-05-02T04:04:30.449Z,12.80
2019-05-02T04:05:40.448Z,12.80
2019-05-02T04:06:40.386Z,12.80
2019-05-02T04:07:44.541Z,12.80
2019-05-02T04:08:58.700Z,12.80
2019-05-02T04:09:55.304Z,12.80
2019-05-02T04:11:11.592Z,12.80
2019-05-02T04:12:19.390Z,12.90
2019-05-02T04:13:22.158Z,12.90
2019-05-02T04:14:37.575Z,12.80
2019-05-02T04:15:35.153Z,12.80
2019-05-02T04:16:38.769Z,12.80
2019-05-02T04:17:43.122Z,12.80
2019-05-02T04:18:54.615Z,12.80
2019-05-02T04:19:54.000Z,12.80
2019-05-02T04:20:59.135Z,12.70
2019-05-02T04:22:08.701Z,12.70
2019-05-02T04:23:10.286Z,12.70
2019-05-02T04:24:16.034Z,12.70
2019-05-02T04:25:20.401Z,12.70
2019-05-02T04:26:24.768Z,12.70
2019-05-02T04:27:34.188Z,12.70
2019-05-02T04:28:35.580Z,12.70
2019-05-02T04:29:39.797Z,12.70
2019-05-02T04:30:45.154Z,12.70
2019-05-02T04:31:49.685Z,12.70
2019-05-02T04:32:56.003Z,12.70
2019-05-02T04:33:59.646Z,12.70
2019-05-02T04:35:04.564Z,12.70
2019-05-02T04:36:15.432Z,12.70
2019-05-02T04:37:14.389Z,12.70
2019-05-02T04:38:21.409Z,12.60
2019-05-02T04:39:24.181Z,12.60
2019-05-02T04:40:28.439Z,12.60
2019-05-02T04:41:34.369Z,12.60
2019-05-02T04:42:39.292Z,12.60
2019-05-02T04:43:54.368Z,12.50
2019-05-02T04:45:11.626Z,12.60
2019-05-02T04:46:00.022Z,12.60
2019-05-02T04:47:13.916Z,12.50
2019-05-02T04:48:08.525Z,12.60
2019-05-02T04:49:22.198Z,12.60
2019-05-02T04:50:25.240Z,12.60
2019-05-02T04:51:28.687Z,12.60
2019-05-02T04:52:37.639Z,12.60
2019-05-02T04:53:44.416Z,12.60
2019-05-02T04:54:44.660Z,12.60
2019-05-02T04:56:00.551Z,12.60
2019-05-02T04:56:55.544Z,12.60
2019-05-02T04:58:01.738Z,12.70
2019-05-02T04:59:16.550Z,12.70
2019-05-02T05:00:12.373Z,12.70
2019-05-02T05:01:16.496Z,12.70
2019-05-02T05:02:34.621Z,12.70
2019-05-02T05:03:28.501Z,12.60
2019-05-02T05:04:41.893Z,12.60
2019-05-02T05:05:40.359Z,12.60
2019-05-02T05:06:54.895Z,12.70
2019-05-02T05:07:50.997Z,12.70
2019-05-02T05:08:58.479Z,12.70
2019-05-02T05:10:03.434Z,12.70
2019-05-02T05:11:07.912Z,12.70
2019-05-02T05:12:11.990Z,12.80
2019-05-02T05:13:19.416Z,12.70
2019-05-02T05:14:21.772Z,12.70
2019-05-02T05:15:37.288Z,12.70
2019-05-02T05:16:32.196Z,12.70
2019-05-02T05:17:37.538Z,12.70
2019-05-02T05:18:43.905Z,12.70
2019-05-02T05:19:48.862Z,12.70
2019-05-02T05:20:54.255Z,12.70
2019-05-02T05:22:04.406Z,12.70
2019-05-02T05:23:08.105Z,12.70
2019-05-02T05:24:13.252Z,12.70
2019-05-02T05:25:21.344Z,12.70
2019-05-02T05:26:27.633Z,12.70
2019-05-02T05:27:33.404Z,12.70
2019-05-02T05:28:40.585Z,12.70
2019-05-02T05:29:46.060Z,12.80
2019-05-02T05:30:55.789Z,12.70
2019-05-02T05:32:05.528Z,12.80
2019-05-02T05:33:09.935Z,12.80
2019-05-02T05:34:12.148Z,12.80
2019-05-02T05:35:17.727Z,12.80
2019-05-02T05:36:29.277Z,12.70
2019-05-02T05:37:29.584Z,12.80
2019-05-02T05:38:36.012Z,12.70
2019-05-02T05:39:43.079Z,12.70
2019-05-02T05:40:47.871Z,12.80
2019-05-02T05:41:52.390Z,12.70
2019-05-02T05:42:57.404Z,12.70
2019-05-02T05:44:01.479Z,12.70
2019-05-02T05:45:13.827Z,12.70
2019-05-02T05:46:17.916Z,12.80
2019-05-02T05:47:23.913Z,12.70
2019-05-02T05:48:32.043Z,12.70
2019-05-02T05:49:37.430Z,12.70
2019-05-02T05:50:41.435Z,12.70
2019-05-02T05:51:49.502Z,12.80
2019-05-02T05:52:55.060Z,12.80
2019-05-02T05:54:03.192Z,12.80
2019-05-02T05:55:12.841Z,12.80
2019-05-02T05:56:15.506Z,12.80
2019-05-02T05:57:21.205Z,12.90
2019-05-02T05:58:25.473Z,12.90
2019-05-02T05:59:32.388Z,13.00
2019-05-02T06:00:38.063Z,13.00
2019-05-02T06:01:42.614Z,13.00
2019-05-02T06:02:53.777Z,13.00
2019-05-02T06:03:52.380Z,13.00
2019-05-02T06:05:03.610Z,13.00
2019-05-02T06:06:05.408Z,13.00
2019-05-02T06:07:09.557Z,13.00
2019-05-02T06:08:13.942Z,13.00
2019-05-02T06:09:26.218Z,13.00
2019-05-02T06:10:34.229Z,13.10
2019-05-02T06:11:38.905Z,13.10
2019-05-02T06:12:43.047Z,13.10
2019-05-02T06:13:50.694Z,13.10
2019-05-02T06:14:56.429Z,13.20
2019-05-02T06:16:02.571Z,13.20
2019-05-02T06:17:06.105Z,13.20
2019-05-02T06:18:10.245Z,13.10
2019-05-02T06:19:17.921Z,13.10
2019-05-02T06:20:20.245Z,13.20
2019-05-02T06:21:24.367Z,13.10
2019-05-02T06:22:28.501Z,13.10
2019-05-02T06:23:36.439Z,13.10
2019-05-02T06:24:39.337Z,13.20
2019-05-02T06:25:44.749Z,13.10
2019-05-02T06:26:49.741Z,13.10
2019-05-02T06:27:54.591Z,13.10
2019-05-02T06:28:58.666Z,13.10
2019-05-02T06:30:03.592Z,13.00
2019-05-02T06:31:08.706Z,13.00
2019-05-02T06:32:14.142Z,13.00
2019-05-02T06:33:18.665Z,13.00
2019-05-02T06:34:22.756Z,13.00
2019-05-02T06:35:27.174Z,13.00
2019-05-02T06:36:36.519Z,13.00
2019-05-02T06:37:40.446Z,13.00
2019-05-02T06:38:43.437Z,13.00
2019-05-02T06:39:47.590Z,12.90
2019-05-02T06:40:52.309Z,13.00
2019-05-02T06:41:57.410Z,13.00
2019-05-02T06:43:09.596Z,13.00
2019-05-02T06:44:18.489Z,13.00
2019-05-02T06:45:19.747Z,13.00
2019-05-02T06:46:27.845Z,13.10
2019-05-02T06:47:29.509Z,13.10
2019-05-02T06:48:35.135Z,13.20
2019-05-02T06:49:43.003Z,13.30
2019-05-02T06:50:47.175Z,13.30
2019-05-02T06:51:56.213Z,13.40
2019-05-02T06:52:57.126Z,13.50
2019-05-02T06:54:01.202Z,13.50
2019-05-02T06:55:09.837Z,13.50
2019-05-02T06:56:14.110Z,13.60
2019-05-02T06:57:19.170Z,13.60
2019-05-02T06:58:24.075Z,13.60
2019-05-02T06:59:31.225Z,13.60
2019-05-02T07:00:49.807Z,13.60
2019-05-02T07:01:41.160Z,13.60
2019-05-02T07:02:45.245Z,13.60
2019-05-02T07:03:49.382Z,13.70
2019-05-02T07:04:54.765Z,13.70
2019-05-02T07:06:02.872Z,13.70
2019-05-02T07:07:05.021Z,13.70
2019-05-02T07:08:11.823Z,13.70
2019-05-02T07:09:15.024Z,13.70
2019-05-02T07:10:25.520Z,13.70
2019-05-02T07:11:27.587Z,13.80
2019-05-02T07:12:31.714Z,13.80
2019-05-02T07:13:36.307Z,13.80
2019-05-02T07:14:41.647Z,13.80
2019-05-02T07:15:57.586Z,13.80
2019-05-02T07:17:05.671Z,13.80
2019-05-02T07:18:12.266Z,13.90
2019-05-02T07:19:30.050Z,13.90
2019-05-02T07:20:35.241Z,13.90
2019-05-02T07:21:39.837Z,13.90
2019-05-02T07:22:45.847Z,13.90
2019-05-02T07:23:53.639Z,13.90
2019-05-02T07:25:06.724Z,13.90
2019-05-02T07:26:06.975Z,13.90
2019-05-02T07:27:11.147Z,13.90
2019-05-02T07:28:15.303Z,13.90
2019-05-02T07:29:21.809Z,13.90
2019-05-02T07:30:30.079Z,13.80
2019-05-02T07:31:32.492Z,13.80
2019-05-02T07:32:38.359Z,13.80
2019-05-02T07:33:42.549Z,13.80
2019-05-02T07:34:48.165Z,13.90
2019-05-02T07:35:55.320Z,14.00
2019-05-02T07:36:59.909Z,14.00
2019-05-02T07:38:04.103Z,14.00
2019-05-02T07:39:10.323Z,14.10
2019-05-02T07:40:16.852Z,14.10
2019-05-02T07:41:24.093Z,14.10
2019-05-02T07:42:29.390Z,14.00
2019-05-02T07:43:37.669Z,14.00
2019-05-02T07:44:44.973Z,13.90
2019-05-02T07:45:52.027Z,13.90
2019-05-02T07:46:57.027Z,13.90
2019-05-02T07:48:01.932Z,13.90
2019-05-02T07:49:06.362Z,13.90
2019-05-02T07:50:11.809Z,14.00
2019-05-02T07:51:17.284Z,14.00
2019-05-02T07:52:23.503Z,14.10
2019-05-02T07:53:28.853Z,14.20
2019-05-02T07:54:34.626Z,14.20
2019-05-02T07:55:40.834Z,14.20
2019-05-02T07:56:48.554Z,14.30
2019-05-02T07:57:51.645Z,14.40
2019-05-02T07:58:55.852Z,14.40
2019-05-02T08:00:02.677Z,14.40
2019-05-02T08:01:13.503Z,14.40
2019-05-02T08:02:20.193Z,14.40
2019-05-02T08:03:21.543Z,14.40
2019-05-02T08:04:25.657Z,14.30
2019-05-02T08:05:29.712Z,14.40
2019-05-02T08:06:35.508Z,14.40
2019-05-02T08:07:40.687Z,14.40
2019-05-02T08:08:44.758Z,14.40
2019-05-02T08:09:48.846Z,14.40
2019-05-02T08:10:53.375Z,14.50
2019-05-02T08:11:58.883Z,14.50
2019-05-02T08:13:03.003Z,14.50
2019-05-02T08:14:07.141Z,14.50
2019-05-02T08:15:13.157Z,14.60
2019-05-02T08:16:17.317Z,14.60
2019-05-02T08:17:21.405Z,14.60
2019-05-02T08:18:30.377Z,14.70
2019-05-02T08:19:31.425Z,14.70
2019-05-02T08:20:36.126Z,14.70
2019-05-02T08:21:41.735Z,14.70
2019-05-02T08:22:48.895Z,14.80
2019-05-02T08:23:51.565Z,14.80
2019-05-02T08:24:55.635Z,14.90
2019-05-02T08:25:59.691Z,14.90
2019-05-02T08:27:05.580Z,14.90
2019-05-02T08:28:16.033Z,15.00
2019-05-02T08:29:16.993Z,14.90
2019-05-02T08:30:22.861Z,14.90
2019-05-02T08:31:29.890Z,14.90
2019-05-02T08:32:35.261Z,14.90
2019-05-02T08:33:39.436Z,14.90
2019-05-02T08:34:46.259Z,14.90
2019-05-02T08:35:49.519Z,14.90
2019-05-02T08:36:53.591Z,14.90
2019-05-02T08:37:57.733Z,14.90
2019-05-02T08:39:01.801Z,14.90
2019-05-02T08:40:11.039Z,14.90
2019-05-02T08:41:20.050Z,14.80
2019-05-02T08:42:21.938Z,14.80
2019-05-02T08:43:26.013Z,14.80
2019-05-02T08:44:30.069Z,14.80
2019-05-02T08:45:38.302Z,14.80
2019-05-02T08:46:39.874Z,14.90
2019-05-02T08:47:44.009Z,14.90
2019-05-02T08:48:50.564Z,14.90
2019-05-02T08:49:54.913Z,14.90
2019-05-02T08:51:00.175Z,14.80
2019-05-02T08:52:04.540Z,14.80
2019-05-02T08:53:08.727Z,14.80
2019-05-02T08:54:13.445Z,14.70
2019-05-02T08:55:17.561Z,14.70
2019-05-02T08:56:22.918Z,14.70
2019-05-02T08:57:29.961Z,14.70
2019-05-02T08:58:32.801Z,14.70
2019-05-02T08:59:36.853Z,14.80
2019-05-02T09:00:41.068Z,14.80
2019-05-02T09:01:49.393Z,14.90
2019-05-02T09:02:50.888Z,15.00
2019-05-02T09:03:56.939Z,15.00
2019-05-02T09:05:04.676Z,15.10
2019-05-02T09:06:06.622Z,15.30
2019-05-02T09:07:10.888Z,15.40
2019-05-02T09:08:16.700Z,15.40
2019-05-02T09:09:22.832Z,15.50
2019-05-02T09:10:29.507Z,15.50
2019-05-02T09:11:34.699Z,15.60
2019-05-02T09:12:42.078Z,15.50
2019-05-02T09:13:46.104Z,15.50
2019-05-02T09:14:52.088Z,15.50
2019-05-02T09:15:57.848Z,15.50
2019-05-02T09:17:08.073Z,15.50
2019-05-02T09:18:09.256Z,15.50
2019-05-02T09:19:21.107Z,15.50
2019-05-02T09:20:20.877Z,15.40
2019-05-02T09:21:26.732Z,15.40
2019-05-02T09:22:32.714Z,15.40
2019-05-02T09:23:37.205Z,15.40
2019-05-02T09:24:44.988Z,15.30
2019-05-02T09:25:51.981Z,15.30
2019-05-02T09:26:56.841Z,15.30
2019-05-02T09:28:03.336Z,15.30
2019-05-02T09:29:07.512Z,15.20
2019-05-02T09:30:17.195Z,15.30
2019-05-02T09:31:23.405Z,15.30
2019-05-02T09:32:32.277Z,15.30
2019-05-02T09:33:45.224Z,15.30
2019-05-02T09:34:47.557Z,15.30
2019-05-02T09:35:57.472Z,15.30
2019-05-02T09:37:12.116Z,15.40
2019-05-02T09:38:17.733Z,15.40
2019-05-02T09:39:34.750Z,15.40
2019-05-02T09:40:35.307Z,15.40
2019-05-02T09:41:41.939Z,15.40
2019-05-02T09:42:47.528Z,15.50
2019-05-02T09:43:52.397Z,15.50
2019-05-02T09:44:57.535Z,15.60
2019-05-02T09:46:07.428Z,15.60
2019-05-02T09:47:12.477Z,15.60
2019-05-02T09:48:21.915Z,15.70
2019-05-02T09:49:32.375Z,15.70
2019-05-02T09:50:38.070Z,15.70
2019-05-02T09:51:42.028Z,15.70
2019-05-02T09:52:46.954Z,15.60
2019-05-02T09:53:57.040Z,15.70
2019-05-02T09:54:58.488Z,15.60
2019-05-02T09:56:04.326Z,15.70
2019-05-02T09:57:12.011Z,15.70
2019-05-02T09:58:21.081Z,15.60
2019-05-02T09:59:30.123Z,15.70
2019-05-02T10:00:42.008Z,15.70
2019-05-02T10:01:49.066Z,15.80
2019-05-02T10:02:53.200Z,15.70
2019-05-02T10:03:57.349Z,15.70
2019-05-02T10:05:07.155Z,15.70
2019-05-02T10:06:17.894Z,15.70
2019-05-02T10:07:18.186Z,15.60
2019-05-02T10:08:24.964Z,15.70
2019-05-02T10:09:32.276Z,15.70
2019-05-02T10:10:37.233Z,15.70
2019-05-02T10:11:43.849Z,15.80
2019-05-02T10:12:48.136Z,15.80
2019-05-02T10:13:55.406Z,15.80
2019-05-02T10:14:59.619Z,15.90
2019-05-02T10:16:03.864Z,15.90
2019-05-02T10:17:08.131Z,15.90
2019-05-02T10:18:14.686Z,15.90
2019-05-02T10:19:19.064Z,15.90
2019-05-02T10:20:36.164Z,15.90
2019-05-02T10:21:46.944Z,15.90
2019-05-02T10:22:54.574Z,15.90
2019-05-02T10:24:08.029Z,15.90
2019-05-02T10:25:13.365Z,15.90
2019-05-02T10:26:19.983Z,16.00
2019-05-02T10:27:24.155Z,15.90
2019-05-02T10:28:28.302Z,15.90
2019-05-02T10:29:33.060Z,16.00
2019-05-02T10:30:42.459Z,16.00
2019-05-02T10:31:47.661Z,16.00
2019-05-02T10:32:56.148Z,16.00
2019-05-02T10:33:58.834Z,16.00
2019-05-02T10:35:03.401Z,15.90
2019-05-02T10:36:13.743Z,15.90
2019-05-02T10:37:13.468Z,15.90
2019-05-02T10:38:19.455Z,15.90
2019-05-02T10:39:28.534Z,15.80
2019-05-02T10:40:33.122Z,15.80
2019-05-02T10:41:39.594Z,15.80
2019-05-02T10:42:42.964Z,15.90
2019-05-02T10:43:53.943Z,15.80
2019-05-02T10:44:52.933Z,15.90
2019-05-02T10:46:04.981Z,15.90
2019-05-02T10:47:10.290Z,16.00
2019-05-02T10:48:25.803Z,16.00
2019-05-02T10:49:25.752Z,16.10
2019-05-02T10:50:32.889Z,16.10
2019-05-02T10:51:41.952Z,16.10
2019-05-02T10:52:43.028Z,16.10
2019-05-02T10:53:51.953Z,16.10
2019-05-02T10:54:55.682Z,16.10
2019-05-02T10:55:59.763Z,16.10
2019-05-02T10:57:08.318Z,16.20
2019-05-02T10:58:12.409Z,16.20
2019-05-02T10:59:16.668Z,16.20
2019-05-02T11:00:23.952Z,16.30
2019-05-02T11:01:32.326Z,16.30
2019-05-02T11:02:53.462Z,16.40
2019-05-02T11:03:59.236Z,16.40
2019-05-02T11:05:16.947Z,16.40
2019-05-02T11:06:22.797Z,16.50
2019-05-02T11:07:28.566Z,16.50
2019-05-02T11:08:36.736Z,16.50
2019-05-02T11:09:38.672Z,16.60
2019-05-02T11:10:44.351Z,16.60
2019-05-02T11:11:48.468Z,16.60
2019-05-02T11:12:56.129Z,16.60
2019-05-02T11:14:12.026Z,16.60
2019-05-02T11:15:35.870Z,16.60
2019-05-02T11:17:01.736Z,16.60
2019-05-02T11:18:07.936Z,16.60
2019-05-02T11:19:16.856Z,16.50
2019-05-02T11:20:22.468Z,16.60
2019-05-02T11:21:26.706Z,16.50
2019-05-02T11:22:32.144Z,16.60
2019-05-02T11:23:36.412Z,16.60
2019-05-02T11:24:41.796Z,16.60
2019-05-02T11:25:46.163Z,16.60
2019-05-02T11:26:52.851Z,16.60
2019-05-02T11:28:02.825Z,16.70
2019-05-02T11:29:05.411Z,16.70
2019-05-02T11:30:12.224Z,16.70
2019-05-02T11:31:17.112Z,16.70
2019-05-02T11:32:22.097Z,16.80
2019-05-02T11:33:26.406Z,16.80
2019-05-02T11:34:32.499Z,16.80
2019-05-02T11:35:41.651Z,16.90
2019-05-02T11:36:46.386Z,17.00
2019-05-02T11:37:51.983Z,17.00
2019-05-02T11:39:05.392Z,17.10
2019-05-02T11:40:07.768Z,17.10
2019-05-02T11:41:12.552Z,17.10
2019-05-02T11:42:23.251Z,17.10
2019-05-02T11:43:25.652Z,17.10
2019-05-02T11:44:29.727Z,17.10
2019-05-02T11:45:35.065Z,17.10
2019-05-02T11:46:42.959Z,17.10
2019-05-02T11:47:44.954Z,17.10
2019-05-02T11:48:56.334Z,17.20
2019-05-02T11:49:56.578Z,17.20
2019-05-02T11:51:02.616Z,17.10
2019-05-02T11:52:08.086Z,17.10
2019-05-02T11:53:23.309Z,17.10
2019-05-02T11:54:18.135Z,17.10
2019-05-02T11:55:24.711Z,17.20
2019-05-02T11:56:27.971Z,17.20
2019-05-02T11:57:33.163Z,17.20
2019-05-02T11:58:41.003Z,17.20
2019-05-02T11:59:44.503Z,17.20
2019-05-02T12:00:49.794Z,17.20
2019-05-02T12:02:02.702Z,17.10
2019-05-02T12:03:14.462Z,17.10
2019-05-02T12:04:18.699Z,16.90
2019-05-02T12:05:26.584Z,16.80
2019-05-02T12:06:33.560Z,16.70
2019-05-02T12:07:37.724Z,16.70
2019-05-02T12:08:45.055Z,16.60
2019-05-02T12:09:55.171Z,16.60
2019-05-02T12:10:53.519Z,16.50
2019-05-02T12:11:59.702Z,16.50
2019-05-02T12:13:06.620Z,16.40
2019-05-02T12:14:09.727Z,16.40
2019-05-02T12:15:16.094Z,16.40
2019-05-02T12:16:22.855Z,16.40
2019-05-02T12:17:28.034Z,16.30
2019-05-02T12:18:32.607Z,16.30
2019-05-02T12:19:36.782Z,16.20
2019-05-02T12:20:42.556Z,16.20
2019-05-02T12:21:57.121Z,16.20
2019-05-02T12:23:03.830Z,16.10
2019-05-02T12:24:09.126Z,16.10
2019-05-02T12:25:13.652Z,16.10
2019-05-02T12:26:22.066Z,16.10
2019-05-02T12:27:26.445Z,16.00
2019-05-02T12:28:32.378Z,16.00
2019-05-02T12:29:36.319Z,15.90
2019-05-02T12:30:41.884Z,15.90
2019-05-02T12:31:54.765Z,15.90
2019-05-02T12:32:55.003Z,15.90
2019-05-02T12:34:02.512Z,15.90
2019-05-02T12:35:06.573Z,15.90
2019-05-02T12:36:11.982Z,15.90
2019-05-02T12:37:16.394Z,15.90
2019-05-02T12:38:22.907Z,15.90
2019-05-02T12:39:26.392Z,15.90
2019-05-02T12:40:33.460Z,15.90
2019-05-02T12:41:37.634Z,16.00
2019-05-02T12:42:42.143Z,16.10
2019-05-02T12:43:46.336Z,16.10
2019-05-02T12:44:57.707Z,16.20
2019-05-02T12:46:02.311Z,16.10
2019-05-02T12:47:08.005Z,16.20
2019-05-02T12:48:12.961Z,16.10
2019-05-02T12:49:26.981Z,16.20
2019-05-02T12:50:23.694Z,16.20
2019-05-02T12:51:27.913Z,16.10
2019-05-02T12:52:32.108Z,16.10
2019-05-02T12:53:36.194Z,16.10
2019-05-02T12:54:41.659Z,16.10
2019-05-02T12:55:46.012Z,16.10
2019-05-02T12:56:50.165Z,16.10
2019-05-02T12:57:54.217Z,16.10
2019-05-02T12:59:02.154Z,16.00
2019-05-02T13:00:10.232Z,16.00
2019-05-02T13:01:14.343Z,16.00
2019-05-02T13:02:28.967Z,16.00
2019-05-02T13:03:34.726Z,16.00
2019-05-02T13:04:38.825Z,15.90
2019-05-02T13:05:42.922Z,15.90
2019-05-02T13:06:47.035Z,15.90
2019-05-02T13:07:55.312Z,15.90
2019-05-02T13:08:56.991Z,15.80
2019-05-02T13:10:02.462Z,15.80
2019-05-02T13:11:17.960Z,15.80
2019-05-02T13:12:23.815Z,15.70
2019-05-02T13:13:27.890Z,15.70
2019-05-02T13:14:32.178Z,15.60
2019-05-02T13:15:36.537Z,15.60
2019-05-02T13:16:42.900Z,15.50
2019-05-02T13:17:48.845Z,15.50
2019-05-02T13:18:52.466Z,15.50
2019-05-02T13:20:00.764Z,15.50
2019-05-02T13:21:07.998Z,15.50
2019-05-02T13:22:16.940Z,15.50
2019-05-02T13:23:27.310Z,15.50
2019-05-02T13:24:42.197Z,15.50
2019-05-02T13:25:47.137Z,15.50
2019-05-02T13:26:58.894Z,15.50
2019-05-02T13:27:57.105Z,15.50
2019-05-02T13:29:02.468Z,15.40
2019-05-02T13:30:12.443Z,15.40
2019-05-02T13:31:36.236Z,15.40
2019-05-02T13:32:43.410Z,15.40
2019-05-02T13:33:55.868Z,15.40
2019-05-02T13:35:17.551Z,15.30
2019-05-02T13:36:39.129Z,15.30
2019-05-02T13:37:43.971Z,15.30
2019-05-02T13:38:48.190Z,15.20
2019-05-02T13:39:54.079Z,15.20
2019-05-02T13:40:58.282Z,15.20
2019-05-02T13:42:02.588Z,15.20
2019-05-02T13:43:08.327Z,15.20
2019-05-02T13:44:14.585Z,15.20
2019-05-02T13:45:26.470Z,15.20
2019-05-02T13:46:32.221Z,15.20
2019-05-02T13:47:36.530Z,15.20
2019-05-02T13:48:42.882Z,15.20
2019-05-02T13:49:53.830Z,15.30
2019-05-02T13:50:53.022Z,15.30
2019-05-02T13:51:57.201Z,15.40
2019-05-02T13:53:02.634Z,15.40
2019-05-02T13:54:07.403Z,15.40
2019-05-02T13:55:14.755Z,15.40
2019-05-02T13:56:22.996Z,15.50
2019-05-02T13:57:27.206Z,15.50
2019-05-02T13:58:33.228Z,15.50
2019-05-02T13:59:37.500Z,15.50
2019-05-02T14:00:46.136Z,15.50
2019-05-02T14:01:52.542Z,15.50
2019-05-02T14:02:57.445Z,15.50
2019-05-02T14:04:03.640Z,15.50
2019-05-02T14:05:12.793Z,15.60
2019-05-02T14:06:21.998Z,15.60
2019-05-02T14:07:24.708Z,15.70
2019-05-02T14:08:36.842Z,15.70
2019-05-02T14:09:40.560Z,15.80
2019-05-02T14:10:46.317Z,15.80
2019-05-02T14:12:11.845Z,15.90
2019-05-02T14:13:16.033Z,15.90